sensor_id;sensor_type;location;lat;lon;timestamp;P1;durP1;ratioP1;P2;durP2;ratioP2
31770;SDS011;18343;50.152;8.182;2024-01-30T00:01:01;55.72;;;30.63;;
31770;SDS011;18343;50.152;8.182;2024-01-30T00:03:45;51.30;;;28.55;;
31770;SDS011;18343;50.152;8.182;2024-01-30T00:06:30;49.70;;;28.45;;
31770;SDS011;18343;50.152;8.182;2024-01-30T00:09:16;48.42;;;26.90;;
31770;SDS011;18343;50.152;8.182;2024-01-30T00:12:00;47.42;;;25.92;;
31770;SDS011;18343;50.152;8.182;2024-01-30T00:14:45;47.38;;;26.23;;
31770;SDS011;18343;50.152;8.182;2024-01-30T00:17:29;38.20;;;23.77;;
31770;SDS011;18343;50.152;8.182;2024-01-30T00:20:14;42.17;;;23.92;;
31770;SDS011;18343;50.152;8.182;2024-01-30T00:22:58;44.55;;;25.55;;
31770;SDS011;18343;50.152;8.182;2024-01-30T00:25:44;40.80;;;24.23;;
31770;SDS011;18343;50.152;8.182;2024-01-30T00:28:29;47.50;;;25.98;;
31770;SDS011;18343;50.152;8.182;2024-01-30T00:31:13;49.25;;;25.65;;
31770;SDS011;18343;50.152;8.182;2024-01-30T00:33:58;46.08;;;24.75;;
31770;SDS011;18343;50.152;8.182;2024-01-30T00:36:43;39.05;;;23.35;;
31770;SDS011;18343;50.152;8.182;2024-01-30T00:39:27;42.00;;;23.95;;
31770;SDS011;18343;50.152;8.182;2024-01-30T00:42:13;46.00;;;24.92;;
31770;SDS011;18343;50.152;8.182;2024-01-30T00:44:58;40.10;;;22.30;;
31770;SDS011;18343;50.152;8.182;2024-01-30T00:47:42;41.08;;;24.00;;
31770;SDS011;18343;50.152;8.182;2024-01-30T00:50:27;41.53;;;23.73;;
31770;SDS011;18343;50.152;8.182;2024-01-30T00:53:12;43.20;;;24.05;;
31770;SDS011;18343;50.152;8.182;2024-01-30T00:55:56;38.92;;;22.90;;
31770;SDS011;18343;50.152;8.182;2024-01-30T00:58:42;39.28;;;23.00;;
31770;SDS011;18343;50.152;8.182;2024-01-30T01:01:27;37.25;;;22.08;;
31770;SDS011;18343;50.152;8.182;2024-01-30T01:04:11;34.65;;;22.02;;
31770;SDS011;18343;50.152;8.182;2024-01-30T01:06:56;34.60;;;20.27;;
31770;SDS011;18343;50.152;8.182;2024-01-30T01:09:41;36.28;;;21.73;;
31770;SDS011;18343;50.152;8.182;2024-01-30T01:12:25;35.00;;;21.55;;
31770;SDS011;18343;50.152;8.182;2024-01-30T01:15:11;38.53;;;21.42;;
31770;SDS011;18343;50.152;8.182;2024-01-30T01:17:56;44.25;;;23.10;;
31770;SDS011;18343;50.152;8.182;2024-01-30T01:20:41;37.20;;;22.67;;
31770;SDS011;18343;50.152;8.182;2024-01-30T01:23:25;42.58;;;23.83;;
31770;SDS011;18343;50.152;8.182;2024-01-30T01:26:10;37.40;;;22.17;;
31770;SDS011;18343;50.152;8.182;2024-01-30T01:28:55;36.25;;;21.67;;
31770;SDS011;18343;50.152;8.182;2024-01-30T01:31:41;35.80;;;21.35;;
31770;SDS011;18343;50.152;8.182;2024-01-30T01:34:25;31.60;;;19.23;;
31770;SDS011;18343;50.152;8.182;2024-01-30T01:37:10;34.78;;;18.63;;
31770;SDS011;18343;50.152;8.182;2024-01-30T01:39:55;29.85;;;17.42;;
31770;SDS011;18343;50.152;8.182;2024-01-30T01:42:40;34.42;;;18.73;;
31770;SDS011;18343;50.152;8.182;2024-01-30T01:45:24;42.78;;;18.92;;
31770;SDS011;18343;50.152;8.182;2024-01-30T01:48:10;35.13;;;18.95;;
31770;SDS011;18343;50.152;8.182;2024-01-30T01:50:56;35.63;;;19.58;;
31770;SDS011;18343;50.152;8.182;2024-01-30T01:53:41;32.88;;;18.13;;
31770;SDS011;18343;50.152;8.182;2024-01-30T01:56:26;33.33;;;18.40;;
31770;SDS011;18343;50.152;8.182;2024-01-30T01:59:11;34.15;;;17.75;;
31770;SDS011;18343;50.152;8.182;2024-01-30T02:01:56;31.13;;;17.02;;
31770;SDS011;18343;50.152;8.182;2024-01-30T02:04:42;30.25;;;17.15;;
31770;SDS011;18343;50.152;8.182;2024-01-30T02:07:27;27.02;;;16.48;;
31770;SDS011;18343;50.152;8.182;2024-01-30T02:10:12;25.25;;;16.10;;
31770;SDS011;18343;50.152;8.182;2024-01-30T02:12:57;28.15;;;16.45;;
31770;SDS011;18343;50.152;8.182;2024-01-30T02:15:41;27.85;;;16.02;;
31770;SDS011;18343;50.152;8.182;2024-01-30T02:18:26;28.20;;;17.17;;
31770;SDS011;18343;50.152;8.182;2024-01-30T02:21:12;28.50;;;16.33;;
31770;SDS011;18343;50.152;8.182;2024-01-30T02:23:56;28.88;;;16.42;;
31770;SDS011;18343;50.152;8.182;2024-01-30T02:26:42;27.38;;;16.77;;
31770;SDS011;18343;50.152;8.182;2024-01-30T02:29:27;32.13;;;16.35;;
31770;SDS011;18343;50.152;8.182;2024-01-30T02:32:11;28.88;;;16.42;;
31770;SDS011;18343;50.152;8.182;2024-01-30T02:34:56;28.02;;;16.13;;
31770;SDS011;18343;50.152;8.182;2024-01-30T02:37:42;29.98;;;15.93;;
31770;SDS011;18343;50.152;8.182;2024-01-30T02:40:27;30.08;;;16.52;;
31770;SDS011;18343;50.152;8.182;2024-01-30T02:43:11;30.13;;;17.00;;
31770;SDS011;18343;50.152;8.182;2024-01-30T02:45:56;26.83;;;16.73;;
31770;SDS011;18343;50.152;8.182;2024-01-30T02:48:40;32.10;;;16.42;;
31770;SDS011;18343;50.152;8.182;2024-01-30T02:51:25;28.08;;;16.35;;
31770;SDS011;18343;50.152;8.182;2024-01-30T02:54:11;27.58;;;16.17;;
31770;SDS011;18343;50.152;8.182;2024-01-30T02:56:56;26.15;;;16.52;;
31770;SDS011;18343;50.152;8.182;2024-01-30T02:59:41;28.40;;;16.80;;
31770;SDS011;18343;50.152;8.182;2024-01-30T03:02:25;25.50;;;16.27;;
31770;SDS011;18343;50.152;8.182;2024-01-30T03:05:10;25.52;;;15.90;;
31770;SDS011;18343;50.152;8.182;2024-01-30T03:07:55;25.63;;;16.63;;
31770;SDS011;18343;50.152;8.182;2024-01-30T03:10:41;33.33;;;16.40;;
31770;SDS011;18343;50.152;8.182;2024-01-30T03:13:26;29.77;;;17.55;;
31770;SDS011;18343;50.152;8.182;2024-01-30T03:16:10;28.80;;;17.02;;
31770;SDS011;18343;50.152;8.182;2024-01-30T03:18:55;29.55;;;16.92;;
31770;SDS011;18343;50.152;8.182;2024-01-30T03:21:40;30.10;;;18.17;;
31770;SDS011;18343;50.152;8.182;2024-01-30T03:24:25;29.98;;;18.13;;
31770;SDS011;18343;50.152;8.182;2024-01-30T03:27:11;30.45;;;18.38;;
31770;SDS011;18343;50.152;8.182;2024-01-30T03:29:55;33.15;;;18.90;;
31770;SDS011;18343;50.152;8.182;2024-01-30T03:32:40;31.60;;;18.92;;
31770;SDS011;18343;50.152;8.182;2024-01-30T03:35:25;36.45;;;20.30;;
31770;SDS011;18343;50.152;8.182;2024-01-30T03:38:10;35.70;;;19.83;;
31770;SDS011;18343;50.152;8.182;2024-01-30T03:40:54;33.15;;;19.13;;
31770;SDS011;18343;50.152;8.182;2024-01-30T03:43:41;33.10;;;20.15;;
31770;SDS011;18343;50.152;8.182;2024-01-30T03:46:26;36.65;;;21.17;;
31770;SDS011;18343;50.152;8.182;2024-01-30T03:49:10;34.35;;;20.40;;
31770;SDS011;18343;50.152;8.182;2024-01-30T03:51:55;30.65;;;19.38;;
31770;SDS011;18343;50.152;8.182;2024-01-30T03:54:40;31.88;;;18.33;;
31770;SDS011;18343;50.152;8.182;2024-01-30T03:57:24;38.88;;;19.77;;
31770;SDS011;18343;50.152;8.182;2024-01-30T04:00:11;29.73;;;18.90;;
31770;SDS011;18343;50.152;8.182;2024-01-30T04:02:57;33.20;;;19.70;;
31770;SDS011;18343;50.152;8.182;2024-01-30T04:05:42;36.65;;;19.95;;
31770;SDS011;18343;50.152;8.182;2024-01-30T04:08:27;35.15;;;21.00;;
31770;SDS011;18343;50.152;8.182;2024-01-30T04:11:11;36.40;;;20.63;;
31770;SDS011;18343;50.152;8.182;2024-01-30T04:13:56;32.53;;;20.50;;
31770;SDS011;18343;50.152;8.182;2024-01-30T04:16:41;38.08;;;20.92;;
31770;SDS011;18343;50.152;8.182;2024-01-30T04:19:26;46.78;;;22.83;;
31770;SDS011;18343;50.152;8.182;2024-01-30T04:22:11;37.75;;;21.30;;
31770;SDS011;18343;50.152;8.182;2024-01-30T04:24:55;35.88;;;21.05;;
31770;SDS011;18343;50.152;8.182;2024-01-30T04:27:40;40.20;;;21.15;;
31770;SDS011;18343;50.152;8.182;2024-01-30T04:30:25;34.95;;;20.33;;
31770;SDS011;18343;50.152;8.182;2024-01-30T04:33:11;33.33;;;20.13;;
31770;SDS011;18343;50.152;8.182;2024-01-30T04:35:56;33.00;;;19.15;;
31770;SDS011;18343;50.152;8.182;2024-01-30T04:38:40;34.92;;;20.20;;
31770;SDS011;18343;50.152;8.182;2024-01-30T04:41:25;31.13;;;18.85;;
31770;SDS011;18343;50.152;8.182;2024-01-30T04:44:09;38.20;;;19.58;;
31770;SDS011;18343;50.152;8.182;2024-01-30T04:46:54;36.08;;;19.80;;
31770;SDS011;18343;50.152;8.182;2024-01-30T04:49:40;34.35;;;19.30;;
31770;SDS011;18343;50.152;8.182;2024-01-30T04:52:25;32.60;;;18.55;;
31770;SDS011;18343;50.152;8.182;2024-01-30T04:55:09;28.77;;;17.58;;
31770;SDS011;18343;50.152;8.182;2024-01-30T04:57:54;32.03;;;19.23;;
31770;SDS011;18343;50.152;8.182;2024-01-30T05:00:39;28.48;;;18.35;;
31770;SDS011;18343;50.152;8.182;2024-01-30T05:03:24;31.38;;;19.80;;
31770;SDS011;18343;50.152;8.182;2024-01-30T05:06:09;31.13;;;18.40;;
31770;SDS011;18343;50.152;8.182;2024-01-30T05:08:54;28.92;;;18.42;;
31770;SDS011;18343;50.152;8.182;2024-01-30T05:11:40;31.80;;;18.70;;
31770;SDS011;18343;50.152;8.182;2024-01-30T05:14:24;39.25;;;18.27;;
31770;SDS011;18343;50.152;8.182;2024-01-30T05:17:09;36.25;;;19.08;;
31770;SDS011;18343;50.152;8.182;2024-01-30T05:19:54;40.88;;;19.65;;
31770;SDS011;18343;50.152;8.182;2024-01-30T05:22:39;38.47;;;20.00;;
31770;SDS011;18343;50.152;8.182;2024-01-30T05:25:24;31.58;;;19.00;;
31770;SDS011;18343;50.152;8.182;2024-01-30T05:28:09;31.60;;;18.80;;
31770;SDS011;18343;50.152;8.182;2024-01-30T05:30:54;31.98;;;18.48;;
31770;SDS011;18343;50.152;8.182;2024-01-30T05:33:38;37.75;;;18.48;;
31770;SDS011;18343;50.152;8.182;2024-01-30T05:36:23;31.17;;;18.83;;
31770;SDS011;18343;50.152;8.182;2024-01-30T05:39:09;31.45;;;17.90;;
31770;SDS011;18343;50.152;8.182;2024-01-30T05:41:54;32.95;;;18.40;;
31770;SDS011;18343;50.152;8.182;2024-01-30T05:44:39;30.52;;;18.20;;
31770;SDS011;18343;50.152;8.182;2024-01-30T05:47:23;29.70;;;18.13;;
31770;SDS011;18343;50.152;8.182;2024-01-30T05:50:08;28.60;;;18.10;;
31770;SDS011;18343;50.152;8.182;2024-01-30T05:52:53;29.67;;;17.15;;
31770;SDS011;18343;50.152;8.182;2024-01-30T05:55:38;28.48;;;17.10;;
31770;SDS011;18343;50.152;8.182;2024-01-30T05:58:23;32.28;;;16.70;;
31770;SDS011;18343;50.152;8.182;2024-01-30T06:01:08;29.95;;;17.52;;
31770;SDS011;18343;50.152;8.182;2024-01-30T06:03:53;30.73;;;17.50;;
31770;SDS011;18343;50.152;8.182;2024-01-30T06:06:37;26.67;;;16.17;;
31770;SDS011;18343;50.152;8.182;2024-01-30T06:09:22;31.35;;;17.30;;
31770;SDS011;18343;50.152;8.182;2024-01-30T06:12:08;27.98;;;17.33;;
31770;SDS011;18343;50.152;8.182;2024-01-30T06:14:53;26.70;;;15.73;;
31770;SDS011;18343;50.152;8.182;2024-01-30T06:17:38;26.35;;;16.20;;
31770;SDS011;18343;50.152;8.182;2024-01-30T06:20:23;32.05;;;17.60;;
31770;SDS011;18343;50.152;8.182;2024-01-30T06:23:08;32.13;;;18.33;;
31770;SDS011;18343;50.152;8.182;2024-01-30T06:25:53;35.97;;;18.73;;
31770;SDS011;18343;50.152;8.182;2024-01-30T06:28:38;32.58;;;19.13;;
31770;SDS011;18343;50.152;8.182;2024-01-30T06:31:23;31.85;;;19.15;;
31770;SDS011;18343;50.152;8.182;2024-01-30T06:34:08;33.85;;;19.67;;
31770;SDS011;18343;50.152;8.182;2024-01-30T06:36:53;32.90;;;20.00;;
31770;SDS011;18343;50.152;8.182;2024-01-30T06:39:39;33.50;;;20.15;;
31770;SDS011;18343;50.152;8.182;2024-01-30T06:42:23;36.50;;;21.60;;
31770;SDS011;18343;50.152;8.182;2024-01-30T06:45:09;34.45;;;21.00;;
31770;SDS011;18343;50.152;8.182;2024-01-30T06:47:55;36.20;;;22.38;;
31770;SDS011;18343;50.152;8.182;2024-01-30T06:50:40;36.70;;;21.42;;
31770;SDS011;18343;50.152;8.182;2024-01-30T06:53:24;28.42;;;18.35;;
31770;SDS011;18343;50.152;8.182;2024-01-30T06:56:09;33.33;;;18.08;;
31770;SDS011;18343;50.152;8.182;2024-01-30T06:58:53;32.70;;;19.38;;
31770;SDS011;18343;50.152;8.182;2024-01-30T07:01:39;30.02;;;18.70;;
31770;SDS011;18343;50.152;8.182;2024-01-30T07:04:23;38.88;;;19.48;;
31770;SDS011;18343;50.152;8.182;2024-01-30T07:07:08;33.60;;;19.23;;
31770;SDS011;18343;50.152;8.182;2024-01-30T07:09:53;34.78;;;20.05;;
31770;SDS011;18343;50.152;8.182;2024-01-30T07:12:38;30.17;;;20.25;;
31770;SDS011;18343;50.152;8.182;2024-01-30T07:15:22;35.92;;;21.42;;
31770;SDS011;18343;50.152;8.182;2024-01-30T07:18:08;37.35;;;22.73;;
31770;SDS011;18343;50.152;8.182;2024-01-30T07:20:53;31.25;;;20.48;;
31770;SDS011;18343;50.152;8.182;2024-01-30T07:23:37;34.92;;;21.25;;
31770;SDS011;18343;50.152;8.182;2024-01-30T07:26:22;36.08;;;21.55;;
31770;SDS011;18343;50.152;8.182;2024-01-30T07:29:07;33.97;;;20.80;;
31770;SDS011;18343;50.152;8.182;2024-01-30T07:31:52;35.65;;;20.67;;
31770;SDS011;18343;50.152;8.182;2024-01-30T07:34:38;34.05;;;20.17;;
31770;SDS011;18343;50.152;8.182;2024-01-30T07:37:22;37.50;;;21.17;;
31770;SDS011;18343;50.152;8.182;2024-01-30T07:40:07;34.22;;;19.70;;
31770;SDS011;18343;50.152;8.182;2024-01-30T07:42:53;31.63;;;19.17;;
31770;SDS011;18343;50.152;8.182;2024-01-30T07:45:38;27.60;;;18.77;;
31770;SDS011;18343;50.152;8.182;2024-01-30T07:48:22;25.70;;;18.27;;
31770;SDS011;18343;50.152;8.182;2024-01-30T07:51:08;28.15;;;17.92;;
31770;SDS011;18343;50.152;8.182;2024-01-30T07:53:53;28.88;;;17.13;;
31770;SDS011;18343;50.152;8.182;2024-01-30T07:56:37;32.63;;;18.10;;
31770;SDS011;18343;50.152;8.182;2024-01-30T07:59:22;27.70;;;17.73;;
31770;SDS011;18343;50.152;8.182;2024-01-30T08:02:07;28.98;;;18.73;;
31770;SDS011;18343;50.152;8.182;2024-01-30T08:04:51;28.15;;;17.50;;
31770;SDS011;18343;50.152;8.182;2024-01-30T08:07:38;32.35;;;19.05;;
31770;SDS011;18343;50.152;8.182;2024-01-30T08:10:22;32.47;;;18.55;;
31770;SDS011;18343;50.152;8.182;2024-01-30T08:13:07;30.38;;;18.23;;
31770;SDS011;18343;50.152;8.182;2024-01-30T08:15:51;30.00;;;18.50;;
31770;SDS011;18343;50.152;8.182;2024-01-30T08:18:36;29.35;;;17.65;;
31770;SDS011;18343;50.152;8.182;2024-01-30T08:21:21;28.33;;;17.73;;
31770;SDS011;18343;50.152;8.182;2024-01-30T08:24:07;25.95;;;16.20;;
31770;SDS011;18343;50.152;8.182;2024-01-30T08:26:52;27.48;;;15.85;;
31770;SDS011;18343;50.152;8.182;2024-01-30T08:29:36;23.27;;;16.02;;
31770;SDS011;18343;50.152;8.182;2024-01-30T08:32:21;25.13;;;15.93;;
31770;SDS011;18343;50.152;8.182;2024-01-30T08:35:06;24.88;;;14.85;;
31770;SDS011;18343;50.152;8.182;2024-01-30T08:37:51;23.73;;;14.02;;
31770;SDS011;18343;50.152;8.182;2024-01-30T08:40:37;21.05;;;13.02;;
31770;SDS011;18343;50.152;8.182;2024-01-30T08:43:22;20.63;;;13.32;;
31770;SDS011;18343;50.152;8.182;2024-01-30T08:46:06;24.42;;;11.88;;
31770;SDS011;18343;50.152;8.182;2024-01-30T08:48:51;22.13;;;12.77;;
31770;SDS011;18343;50.152;8.182;2024-01-30T08:51:36;18.10;;;11.93;;
31770;SDS011;18343;50.152;8.182;2024-01-30T08:54:21;21.02;;;12.18;;
31770;SDS011;18343;50.152;8.182;2024-01-30T08:57:07;21.10;;;12.40;;
31770;SDS011;18343;50.152;8.182;2024-01-30T08:59:51;21.13;;;12.40;;
31770;SDS011;18343;50.152;8.182;2024-01-30T09:02:35;16.67;;;10.55;;
31770;SDS011;18343;50.152;8.182;2024-01-30T09:05:20;19.15;;;12.65;;
31770;SDS011;18343;50.152;8.182;2024-01-30T09:08:05;22.30;;;12.50;;
31770;SDS011;18343;50.152;8.182;2024-01-30T09:10:50;20.73;;;11.60;;
31770;SDS011;18343;50.152;8.182;2024-01-30T09:13:36;19.30;;;11.93;;
31770;SDS011;18343;50.152;8.182;2024-01-30T09:16:21;16.20;;;11.10;;
31770;SDS011;18343;50.152;8.182;2024-01-30T09:19:05;20.10;;;11.93;;
31770;SDS011;18343;50.152;8.182;2024-01-30T09:21:49;20.00;;;12.45;;
31770;SDS011;18343;50.152;8.182;2024-01-30T09:24:34;23.92;;;12.20;;
31770;SDS011;18343;50.152;8.182;2024-01-30T09:27:18;15.63;;;9.52;;
31770;SDS011;18343;50.152;8.182;2024-01-30T09:30:05;18.80;;;12.40;;
31770;SDS011;18343;50.152;8.182;2024-01-30T09:32:51;19.38;;;11.43;;
31770;SDS011;18343;50.152;8.182;2024-01-30T09:35:36;22.30;;;12.48;;
31770;SDS011;18343;50.152;8.182;2024-01-30T09:38:20;17.65;;;11.25;;
31770;SDS011;18343;50.152;8.182;2024-01-30T09:41:05;17.60;;;11.45;;
31770;SDS011;18343;50.152;8.182;2024-01-30T09:43:54;19.52;;;10.85;;
31770;SDS011;18343;50.152;8.182;2024-01-30T09:46:42;22.67;;;12.60;;
31770;SDS011;18343;50.152;8.182;2024-01-30T09:49:30;16.95;;;11.63;;
31770;SDS011;18343;50.152;8.182;2024-01-30T09:52:16;24.70;;;11.73;;
31770;SDS011;18343;50.152;8.182;2024-01-30T09:55:01;22.58;;;12.45;;
31770;SDS011;18343;50.152;8.182;2024-01-30T09:57:45;23.17;;;12.68;;
31770;SDS011;18343;50.152;8.182;2024-01-30T10:00:30;19.70;;;11.82;;
31770;SDS011;18343;50.152;8.182;2024-01-30T10:03:16;21.05;;;12.27;;
31770;SDS011;18343;50.152;8.182;2024-01-30T10:06:01;20.27;;;11.68;;
31770;SDS011;18343;50.152;8.182;2024-01-30T10:08:45;17.60;;;11.90;;
31770;SDS011;18343;50.152;8.182;2024-01-30T10:11:30;19.90;;;11.07;;
31770;SDS011;18343;50.152;8.182;2024-01-30T10:14:15;15.60;;;11.25;;
31770;SDS011;18343;50.152;8.182;2024-01-30T10:17:00;20.42;;;11.65;;
31770;SDS011;18343;50.152;8.182;2024-01-30T10:19:47;20.23;;;11.57;;
31770;SDS011;18343;50.152;8.182;2024-01-30T10:22:31;19.23;;;11.10;;
31770;SDS011;18343;50.152;8.182;2024-01-30T10:25:17;22.58;;;11.45;;
31770;SDS011;18343;50.152;8.182;2024-01-30T10:28:01;19.42;;;11.27;;
31770;SDS011;18343;50.152;8.182;2024-01-30T10:30:46;17.30;;;11.32;;
31770;SDS011;18343;50.152;8.182;2024-01-30T10:33:40;21.15;;;10.73;;
31770;SDS011;18343;50.152;8.182;2024-01-30T10:36:28;17.42;;;10.32;;
31770;SDS011;18343;50.152;8.182;2024-01-30T10:39:14;18.98;;;10.85;;
31770;SDS011;18343;50.152;8.182;2024-01-30T10:42:02;15.00;;;10.18;;
31770;SDS011;18343;50.152;8.182;2024-01-30T10:44:52;17.73;;;10.77;;
31770;SDS011;18343;50.152;8.182;2024-01-30T10:47:49;20.08;;;10.65;;
31770;SDS011;18343;50.152;8.182;2024-01-30T10:50:34;15.23;;;9.65;;
31770;SDS011;18343;50.152;8.182;2024-01-30T10:53:21;16.52;;;11.13;;
31770;SDS011;18343;50.152;8.182;2024-01-30T10:56:06;16.50;;;10.45;;
31770;SDS011;18343;50.152;8.182;2024-01-30T10:58:52;17.15;;;10.65;;
31770;SDS011;18343;50.152;8.182;2024-01-30T11:01:38;18.42;;;10.43;;
31770;SDS011;18343;50.152;8.182;2024-01-30T11:04:23;18.65;;;9.65;;
31770;SDS011;18343;50.152;8.182;2024-01-30T11:07:14;18.15;;;10.07;;
31770;SDS011;18343;50.152;8.182;2024-01-30T11:10:01;18.25;;;9.80;;
31770;SDS011;18343;50.152;8.182;2024-01-30T11:12:47;16.10;;;10.50;;
31770;SDS011;18343;50.152;8.182;2024-01-30T11:15:32;16.02;;;9.13;;
31770;SDS011;18343;50.152;8.182;2024-01-30T11:18:23;14.20;;;9.40;;
31770;SDS011;18343;50.152;8.182;2024-01-30T11:21:08;15.75;;;9.27;;
31770;SDS011;18343;50.152;8.182;2024-01-30T11:23:58;15.02;;;9.68;;
31770;SDS011;18343;50.152;8.182;2024-01-30T11:26:43;26.75;;;10.23;;
31770;SDS011;18343;50.152;8.182;2024-01-30T11:29:28;14.32;;;9.38;;
31770;SDS011;18343;50.152;8.182;2024-01-30T11:32:16;13.65;;;9.60;;
31770;SDS011;18343;50.152;8.182;2024-01-30T11:35:06;15.73;;;10.02;;
31770;SDS011;18343;50.152;8.182;2024-01-30T11:37:51;20.70;;;10.77;;
31770;SDS011;18343;50.152;8.182;2024-01-30T11:40:37;18.48;;;9.63;;
31770;SDS011;18343;50.152;8.182;2024-01-30T11:43:25;15.43;;;9.27;;
31770;SDS011;18343;50.152;8.182;2024-01-30T11:46:09;16.70;;;10.98;;
31770;SDS011;18343;50.152;8.182;2024-01-30T11:48:54;16.45;;;9.70;;
31770;SDS011;18343;50.152;8.182;2024-01-30T11:51:39;11.63;;;8.75;;
31770;SDS011;18343;50.152;8.182;2024-01-30T11:54:24;19.63;;;10.57;;
31770;SDS011;18343;50.152;8.182;2024-01-30T11:57:27;18.27;;;9.47;;
31770;SDS011;18343;50.152;8.182;2024-01-30T12:00:17;14.13;;;9.55;;
31770;SDS011;18343;50.152;8.182;2024-01-30T12:03:02;16.08;;;9.20;;
31770;SDS011;18343;50.152;8.182;2024-01-30T12:05:54;16.00;;;9.93;;
31770;SDS011;18343;50.152;8.182;2024-01-30T12:08:40;14.25;;;8.95;;
31770;SDS011;18343;50.152;8.182;2024-01-30T12:11:24;19.40;;;9.57;;
31770;SDS011;18343;50.152;8.182;2024-01-30T12:14:09;19.15;;;8.95;;
31770;SDS011;18343;50.152;8.182;2024-01-30T12:16:57;18.55;;;9.73;;
31770;SDS011;18343;50.152;8.182;2024-01-30T12:19:41;18.25;;;9.05;;
31770;SDS011;18343;50.152;8.182;2024-01-30T12:22:26;14.85;;;8.98;;
31770;SDS011;18343;50.152;8.182;2024-01-30T12:25:11;15.50;;;9.38;;
31770;SDS011;18343;50.152;8.182;2024-01-30T12:27:57;13.82;;;8.95;;
31770;SDS011;18343;50.152;8.182;2024-01-30T12:30:42;17.70;;;9.20;;
31770;SDS011;18343;50.152;8.182;2024-01-30T12:33:28;14.82;;;9.68;;
31770;SDS011;18343;50.152;8.182;2024-01-30T12:36:13;13.88;;;8.63;;
31770;SDS011;18343;50.152;8.182;2024-01-30T12:38:57;13.18;;;8.55;;
31770;SDS011;18343;50.152;8.182;2024-01-30T12:41:42;13.65;;;8.63;;
31770;SDS011;18343;50.152;8.182;2024-01-30T12:44:27;13.95;;;8.88;;
31770;SDS011;18343;50.152;8.182;2024-01-30T12:47:11;15.60;;;9.00;;
31770;SDS011;18343;50.152;8.182;2024-01-30T12:49:57;15.30;;;8.68;;
31770;SDS011;18343;50.152;8.182;2024-01-30T12:52:42;15.35;;;9.65;;
31770;SDS011;18343;50.152;8.182;2024-01-30T12:55:27;14.80;;;9.85;;
31770;SDS011;18343;50.152;8.182;2024-01-30T12:58:12;16.92;;;11.25;;
31770;SDS011;18343;50.152;8.182;2024-01-30T13:00:56;15.40;;;10.40;;
31770;SDS011;18343;50.152;8.182;2024-01-30T13:03:41;20.25;;;11.00;;
31770;SDS011;18343;50.152;8.182;2024-01-30T13:06:27;19.15;;;10.90;;
31770;SDS011;18343;50.152;8.182;2024-01-30T13:09:12;18.75;;;11.27;;
31770;SDS011;18343;50.152;8.182;2024-01-30T13:11:56;15.15;;;10.60;;
31770;SDS011;18343;50.152;8.182;2024-01-30T13:14:42;16.75;;;10.95;;
31770;SDS011;18343;50.152;8.182;2024-01-30T13:17:26;16.45;;;10.88;;
31770;SDS011;18343;50.152;8.182;2024-01-30T13:20:11;16.10;;;10.60;;
31770;SDS011;18343;50.152;8.182;2024-01-30T13:22:57;17.17;;;10.48;;
31770;SDS011;18343;50.152;8.182;2024-01-30T13:25:41;20.08;;;11.18;;
31770;SDS011;18343;50.152;8.182;2024-01-30T13:28:26;16.02;;;10.60;;
31770;SDS011;18343;50.152;8.182;2024-01-30T13:31:10;16.60;;;10.45;;
31770;SDS011;18343;50.152;8.182;2024-01-30T13:33:55;15.18;;;10.60;;
31770;SDS011;18343;50.152;8.182;2024-01-30T13:36:40;19.70;;;11.88;;
31770;SDS011;18343;50.152;8.182;2024-01-30T13:39:26;18.95;;;11.52;;
31770;SDS011;18343;50.152;8.182;2024-01-30T13:42:10;17.17;;;10.32;;
31770;SDS011;18343;50.152;8.182;2024-01-30T13:44:55;16.17;;;10.68;;
31770;SDS011;18343;50.152;8.182;2024-01-30T13:47:39;19.35;;;11.25;;
31770;SDS011;18343;50.152;8.182;2024-01-30T13:50:24;18.73;;;11.98;;
31770;SDS011;18343;50.152;8.182;2024-01-30T13:53:09;17.60;;;11.77;;
31770;SDS011;18343;50.152;8.182;2024-01-30T13:55:55;19.48;;;10.70;;
31770;SDS011;18343;50.152;8.182;2024-01-30T13:58:40;19.02;;;11.32;;
31770;SDS011;18343;50.152;8.182;2024-01-30T14:01:24;20.80;;;11.73;;
31770;SDS011;18343;50.152;8.182;2024-01-30T14:04:09;21.83;;;10.77;;
31770;SDS011;18343;50.152;8.182;2024-01-30T14:06:54;22.00;;;11.20;;
31770;SDS011;18343;50.152;8.182;2024-01-30T14:09:38;25.08;;;12.25;;
31770;SDS011;18343;50.152;8.182;2024-01-30T14:12:24;18.17;;;11.55;;
31770;SDS011;18343;50.152;8.182;2024-01-30T14:15:09;19.30;;;11.40;;
31770;SDS011;18343;50.152;8.182;2024-01-30T14:17:54;21.02;;;11.10;;
31770;SDS011;18343;50.152;8.182;2024-01-30T14:20:38;18.13;;;11.27;;
31770;SDS011;18343;50.152;8.182;2024-01-30T14:23:23;17.10;;;11.05;;
31770;SDS011;18343;50.152;8.182;2024-01-30T14:26:08;17.90;;;11.80;;
31770;SDS011;18343;50.152;8.182;2024-01-30T14:28:54;21.88;;;11.40;;
31770;SDS011;18343;50.152;8.182;2024-01-30T14:31:39;18.42;;;10.95;;
31770;SDS011;18343;50.152;8.182;2024-01-30T14:34:25;19.23;;;11.13;;
31770;SDS011;18343;50.152;8.182;2024-01-30T14:37:09;21.20;;;11.20;;
31770;SDS011;18343;50.152;8.182;2024-01-30T14:39:54;17.50;;;11.07;;
31770;SDS011;18343;50.152;8.182;2024-01-30T14:42:39;23.38;;;11.88;;
31770;SDS011;18343;50.152;8.182;2024-01-30T14:45:25;19.95;;;11.25;;
31770;SDS011;18343;50.152;8.182;2024-01-30T14:48:09;16.77;;;10.85;;
31770;SDS011;18343;50.152;8.182;2024-01-30T14:50:54;17.30;;;10.85;;
31770;SDS011;18343;50.152;8.182;2024-01-30T14:53:39;20.80;;;11.85;;
31770;SDS011;18343;50.152;8.182;2024-01-30T14:56:25;19.58;;;12.05;;
31770;SDS011;18343;50.152;8.182;2024-01-30T14:59:10;17.67;;;11.57;;
31770;SDS011;18343;50.152;8.182;2024-01-30T15:01:56;22.20;;;11.93;;
31770;SDS011;18343;50.152;8.182;2024-01-30T15:04:41;21.08;;;11.93;;
31770;SDS011;18343;50.152;8.182;2024-01-30T15:07:25;17.27;;;11.32;;
31770;SDS011;18343;50.152;8.182;2024-01-30T15:10:10;17.70;;;11.82;;
31770;SDS011;18343;50.152;8.182;2024-01-30T15:12:55;18.80;;;11.63;;
31770;SDS011;18343;50.152;8.182;2024-01-30T15:15:40;20.17;;;11.75;;
31770;SDS011;18343;50.152;8.182;2024-01-30T15:18:25;16.35;;;11.20;;
31770;SDS011;18343;50.152;8.182;2024-01-30T15:21:10;19.10;;;11.57;;
31770;SDS011;18343;50.152;8.182;2024-01-30T15:23:55;24.55;;;13.18;;
31770;SDS011;18343;50.152;8.182;2024-01-30T15:26:40;18.70;;;11.65;;
31770;SDS011;18343;50.152;8.182;2024-01-30T15:29:24;20.08;;;12.52;;
31770;SDS011;18343;50.152;8.182;2024-01-30T15:32:09;18.27;;;11.75;;
31770;SDS011;18343;50.152;8.182;2024-01-30T15:34:55;21.95;;;12.38;;
31770;SDS011;18343;50.152;8.182;2024-01-30T15:37:39;21.88;;;12.48;;
31770;SDS011;18343;50.152;8.182;2024-01-30T15:40:24;20.17;;;12.10;;
31770;SDS011;18343;50.152;8.182;2024-01-30T15:43:08;18.23;;;11.45;;
31770;SDS011;18343;50.152;8.182;2024-01-30T15:45:53;23.83;;;15.45;;
31770;SDS011;18343;50.152;8.182;2024-01-30T15:48:38;30.52;;;17.48;;
31770;SDS011;18343;50.152;8.182;2024-01-30T15:51:24;24.15;;;14.38;;
31770;SDS011;18343;50.152;8.182;2024-01-30T15:54:10;25.65;;;12.32;;
31770;SDS011;18343;50.152;8.182;2024-01-30T15:56:54;32.25;;;23.80;;
31770;SDS011;18343;50.152;8.182;2024-01-30T15:59:39;25.17;;;15.70;;
31770;SDS011;18343;50.152;8.182;2024-01-30T16:02:24;21.77;;;14.05;;
31770;SDS011;18343;50.152;8.182;2024-01-30T16:05:08;22.70;;;12.90;;
31770;SDS011;18343;50.152;8.182;2024-01-30T16:07:55;19.30;;;12.85;;